Terminal Aerodrome Forecast
Issued by NWS

Home | Current Version | Previous Version | Text Only | Print | Product List | Glossary On
Versions: 1 2 3 4 5 6 7 8 9 10 11 12 13 14 15 16 17 18 19 20
000
FTUS42 KTBW 030239 AAD
TAFRSW
TAF AMD
KRSW 030239Z 0303/0324 VRB06KT P6SM VCTS SCT030CB BKN050
      TEMPO 0303/0304 3SM TSRA BKN025CB
     FM030500 VRB03KT P6SM FEW040 SCT250
     FM031800 27006KT P6SM VCTS FEW035CB SCT250
     FM032200 29008KT P6SM SCT035 SCT250=

USA.gov is the U.S. government's official web portal to all federal, state and local government web resources and services.